Eglinton, United Kingdom

10:02 AM GMT on February 12, 2016 (GMT +0000)
Eglinton | | Change Station
CLOSE
Current Station
Airport
Location: Eglinton,
Elevation: 30 ft
Nearby Weather Stations

Elev 30 ft 55.04 °N, 7.16 °W | Updated 12 minutes ago

Mostly Cloudy
Mostly Cloudy
39 °F
Feels Like 35 °F
N
6
Wind Variable Wind from East

Today
High -- | Low -- °F
--% Chance of Precip.
Yesterday
High -- | Low -- °F
Precip. -- in
Pressure 29.36 in
Visibility 5.0 miles
Clouds Few 800 ft
Mostly Cloudy 1300 ft
Windchill 35 °F
Dew Point 39 °F
Humidity 100%
Rainfall 0.00 in
Snow Depth Not available.
7:59 AM 5:27 PM
Waxing Crescent, 19% visible
METAR EGAE 120950Z 10005KT 8000 FEW008 BKN013 04/04 Q0994
Pressure 29.36 in
Visibility 5.0 miles
Clouds Few 800 ft
Mostly Cloudy 1300 ft
Windchill 35 °F
Dew Point 39 °F
Humidity 100%
Rainfall 0.00 in
Snow Depth Not available.
7:59 AM 5:27 PM
Waxing Crescent, 19% visible
METAR EGAE 120950Z 10005KT 8000 FEW008 BKN013 04/04 Q0994

10-Day Weather Forecast

Almanac

Astronomy

Feb. 12, 2016 Rise Set
Actual Time
Civil Twilight
Nautical Twilight
Astronomical Twilight
Moon
Length of Visible Light
Length of Day
Tomorrow will be .
, % of the Moon is Illuminated

Today's Extremes

Country Highs Country Lows

Community

WunderPhotos

Upload Photos

1,892,287 photos uploaded!

WunderBlog® & News

Nearby

Air Quality

  Air Quality AQ Index Pollutant
Not available.

Snow Depth

Station Depth Elevation

Earthquake Activity

City Distance Mag. Time & Date
Minimum magnitude displayed is 2.5.

Coastal Water Temperatures

Place Temperature

Stations

Nearby Weather Stations

Station Location Temp. Windchill Dew Point Humidity Wind Precip. Elev Updated Type